• Join FlightAware (Why Join?)
  • Login
  • US Flag 
02:50AM EDT


 

Airport Tracker/Info


-or-


 

Live Flight TrackerFlight Track Log ✈ SWA1835 ✈ 26-Apr-2014 ✈ KDCA - KSTL

Flight Track Log - Related Links

Times and Time Zones

All times are in EDT time to prevent confusion due to time zone crossing. See the SWA1835 flight status page for this flight to view local times or setup timezone preferences in your user account.

Time Position Orientation Groundspeed Altitude Reporting Facility
EDT Latitude Longitude Course Direction KTS MPH feet Rate Location/Type
12:36PM 38.8333 -77.0333 180° South 150 173 1,200  Level Potomac TRACON
12:37PM 38.7833 -77.0333 180° South 211 243 3,700 2,040 Climbing Potomac TRACON
12:38PM 38.7667 -77.1167 256° West 248 285 5,300 3,060 Climbing Potomac TRACON
12:39PM 38.7500 -77.2000 256° West 234 269 10,200 2,940 Climbing Potomac TRACON
12:41PM 38.8181 -77.3781 296° West 311 358 15,300 2,040 Climbing Washington Center
12:42PM 38.8394 -77.5133 282° West 323 372 16,900 720 Climbing Washington Center
12:43PM 38.8597 -77.6217 284° West 326 375 16,900 1,080 Level Washington Center
12:44PM 38.8794 -77.7356 283° West 329 379 19,200 2,460 Climbing Washington Center
12:45PM 38.8989 -77.8517 282° West 334 384 22,100 2,700 Climbing Washington Center
12:46PM 38.9222 -77.9861 283° West 334 384 24,900 2,220 Climbing Washington Center
12:47PM 38.9431 -78.1100 282° West 351 404 26,700 1,740 Climbing Washington Center
12:48PM 38.9633 -78.2392 281° West 368 423 28,500 1,860 Climbing Washington Center
12:49PM 38.9706 -78.3717 274° West 373 429 30,500 1,740 Climbing Washington Center
12:50PM 38.9797 -78.5069 275° West 374 430 32,200 1,740 Climbing Washington Center
12:51PM 38.9903 -78.6719 275° West 384 442 34,100 1,500 Climbing Washington Center
12:52PM 38.9978 -78.8086 274° West 384 442 35,400 1,380 Climbing Washington Center
12:53PM 39.0064 -78.9464 275° West 384 442 37,000 1,200 Climbing Washington Center
12:54PM 39.0139 -79.0764 274° West 367 422 38,000 480 Climbing Washington Center
12:55PM 39.0225 -79.2072 275° West 366 421 38,000  Level Washington Center
12:56PM 39.0297 -79.3381 274° West 366 421 38,000  Level Washington Center
12:57PM 39.0411 -79.5050 275° West 388 447 38,000  Level Washington Center
12:58PM 39.0506 -79.6472 275° West 390 449 38,000  Level Washington Center
01:00PM 39.0597 -79.7881 275° West 391 450 38,000  Level Washington Center
01:01PM 39.0672 -79.9247 274° West 389 448 38,000  Level Washington Center
01:02PM 39.0744 -80.0606 274° West 388 447 38,000  Level Washington Center
01:02PM 39.0792 -80.1369 275° West 384 442 38,000  Level Indianapolis Center
01:03PM 39.0886 -80.2953 274° West 376 433 38,000  Level Indianapolis Center
01:04PM 39.0958 -80.4275 274° West 375 432 38,000  Level Indianapolis Center
01:05PM 39.1039 -80.5586 275° West 373 429 38,000  Level Indianapolis Center
01:06PM 39.1153 -80.6906 276° West 372 428 38,000  Level Indianapolis Center
01:07PM 39.1228 -80.8225 274° West 372 428 38,000  Level Indianapolis Center
01:08PM 39.1317 -80.9528 275° West 372 428 38,000  Level Indianapolis Center
01:09PM 39.1419 -81.1094 275° West 371 427 38,000  Level Indianapolis Center
01:10PM 39.1511 -81.2369 275° West 365 420 38,000  Level Indianapolis Center
01:11PM 39.1589 -81.3636 275° West 362 417 38,000  Level Indianapolis Center
01:12PM 39.1675 -81.4900 275° West 361 415 38,000  Level Indianapolis Center
01:14PM 39.1747 -81.6175 274° West 360 414 38,000  Level Indianapolis Center
01:15PM 39.1836 -81.7717 274° West 361 415 38,000  Level Indianapolis Center
01:16PM 39.1919 -81.8992 275° West 361 415 38,000  Level Indianapolis Center
01:17PM 39.1989 -82.0258 274° West 360 414 38,000  Level Indianapolis Center
01:18PM 39.2058 -82.1511 274° West 357 411 38,000  Level Indianapolis Center
01:19PM 39.2128 -82.2756 274° West 352 405 38,000  Level Indianapolis Center
01:20PM 39.2194 -82.3997 274° West 352 405 38,000  Level Indianapolis Center
01:21PM 39.2269 -82.5325 274° West 352 405 38,000  Level Indianapolis Center
01:22PM 39.2325 -82.6567 273° West 351 404 38,000  Level Indianapolis Center
01:23PM 39.2411 -82.8053 274° West 350 403 38,000  Level Indianapolis Center
01:24PM 39.2481 -82.9306 274° West 350 403 38,000  Level Indianapolis Center
01:25PM 39.2536 -83.0556 273° West 350 403 38,000  Level Indianapolis Center
01:26PM 39.2592 -83.1822 273° West 350 403 38,000  Level Indianapolis Center
01:27PM 39.2656 -83.3097 274° West 351 404 38,000  Level Indianapolis Center
01:28PM 39.2711 -83.4369 273° West 351 404 38,000  Level Indianapolis Center
01:29PM 39.2769 -83.5636 273° West 352 405 38,000  Level Indianapolis Center
01:30PM 39.2822 -83.6925 273° West 355 409 38,000  Level Indianapolis Center
01:31PM 39.2892 -83.8475 273° West 355 409 38,000  Level Indianapolis Center
01:32PM 39.2947 -83.9742 273° West 355 409 38,000  Level Indianapolis Center
01:33PM 39.2997 -84.0997 273° West 353 406 38,000  Level Indianapolis Center
01:34PM 39.3050 -84.2253 273° West 352 405 38,000  Level Indianapolis Center
01:35PM 39.3097 -84.3475 273° West 345 397 38,000  Level Indianapolis Center
01:36PM 39.3139 -84.4722 273° West 344 396 38,000  Level Indianapolis Center
01:37PM 39.3192 -84.5944 273° West 344 396 38,000  Level Indianapolis Center
01:38PM 39.3236 -84.7400 272° West 341 392 38,000  Level Indianapolis Center
01:39PM 39.3286 -84.8597 273° West 338 389 38,000  Level Indianapolis Center
01:40PM 39.3311 -84.9711 272° West 335 386 38,000  Level Indianapolis Center
01:41PM 39.3356 -85.0919 273° West 336 387 38,000  Level Indianapolis Center
01:42PM 39.3408 -85.2372 273° West 336 387 38,000  Level Indianapolis Center
01:43PM 39.3436 -85.3592 272° West 336 387 38,000  Level Indianapolis Center
01:44PM 39.3469 -85.4789 272° West 336 387 38,000  Level Indianapolis Center
01:46PM 39.3506 -85.6014 272° West 337 388 38,000  Level Indianapolis Center
01:47PM 39.3533 -85.7242 272° West 340 391 38,000  Level Indianapolis Center
01:48PM 39.3567 -85.8467 272° West 340 391 38,000  Level Indianapolis Center
01:49PM 39.3597 -85.9708 272° West 341 392 38,000  Level Indianapolis Center
01:50PM 39.3628 -86.0961 272° West 342 394 38,000  Level Indianapolis Center
01:51PM 39.3656 -86.2456 271° West 342 394 38,000  Level Indianapolis Center
01:52PM 39.3681 -86.3700 272° West 343 395 38,000  Level Indianapolis Center
01:53PM 39.3706 -86.4961 272° West 344 396 38,000  Level Indianapolis Center
01:54PM 39.3736 -86.6214 272° West 344 396 38,000  Level Indianapolis Center
01:55PM 39.3756 -86.7464 271° West 344 396 38,000  Level Indianapolis Center
01:56PM 39.3781 -86.8719 272° West 345 397 38,000  Level Indianapolis Center
01:57PM 39.3797 -86.9961 271° West 345 397 38,000  Level Indianapolis Center
01:58PM 39.3811 -87.1194 271° West 345 397 38,000  Level Indianapolis Center
01:59PM 39.3836 -87.2681 271° West 345 397 38,000  Level Indianapolis Center
02:00PM 39.3847 -87.3911 271° West 345 397 38,000  Level Indianapolis Center
02:01PM 39.3867 -87.5161 271° West 345 397 38,000 -300 Level Indianapolis Center
02:02PM 39.3875 -87.6406 271° West 346 398 37,400 -1,080 Descending Indianapolis Center
02:03PM 39.3892 -87.7667 271° West 347 399 35,800 -2,220 Descending Indianapolis Center
02:04PM 39.3903 -87.8919 271° West 347 399 32,900 -2,700 Descending Indianapolis Center
02:05PM 39.3900 -88.0228 270° West 359 413 30,300 -1,440 Descending Indianapolis Center
02:06PM 39.3578 -88.1833 255° West 381 438 30,000 -240 Descending Indianapolis Center
02:07PM 39.3417 -88.2383 249° West 386 444 30,000  Level Kansas City Center
02:08PM 39.3078 -88.3683 251° West 385 443 30,000  Level Kansas City Center
02:09PM 39.2742 -88.4947 251° West 376 433 30,000  Level Kansas City Center
02:10PM 39.2372 -88.6331 251° West 377 434 30,000  Level Kansas City Center
02:11PM 39.2042 -88.7603 251° West 377 434 30,000 -480 Level Kansas City Center
02:12PM 39.1667 -88.8883 249° West 378 435 29,100 -1,440 Descending Kansas City Center
02:13PM 39.1331 -89.0183 252° West 378 435 27,100 -2,100 Descending Kansas City Center
02:14PM 39.0992 -89.1447 251° West 377 434 24,900 -2,160 Descending Kansas City Center
02:15PM 39.0697 -89.2714 253° West 372 428 22,700 -2,340 Descending Kansas City Center
02:16PM 39.0364 -89.4108 253° West 357 411 20,200 -2,160 Descending Kansas City Center
02:17PM 39.0111 -89.5256 254° West 356 410 18,300 -2,220 Descending Kansas City Center
02:18PM 38.9728 -89.6661 251° West 351 404 15,700 -1,860 Descending Kansas City Center
02:19PM 38.9394 -89.7750 249° West 346 398 14,500 -1,380 Descending Kansas City Center
02:20PM 38.9094 -89.8683 248° West 328 377 12,900 -1,860 Descending Kansas City Center
02:21PM 38.8717 -89.9897 248° West 308 354 10,800 -1,440 Descending Kansas City Center
02:22PM 38.8414 -90.0822 247° West 286 329 10,000 -900 Descending Kansas City Center
02:23PM 38.8164 -90.1606 248° West 245 282 9,000 -1,200 Descending Kansas City Center
02:24PM 38.8061 -90.2411 261° West 248 285 7,600 -1,020 Descending Kansas City Center
02:25PM 38.8392 -90.3125 301° West 238 274 6,900 -1,080 Descending Kansas City Center
02:26PM 38.8703 -90.3806 300° West 225 259 5,500 -1,320 Descending Kansas City Center
02:27PM 38.8903 -90.4625 287° West 205 236 4,300 -1,020 Descending Kansas City Center
02:28PM 38.8522 -90.5083 223° Southwest 202 232 3,400 -960 Descending Kansas City Center
02:29PM 38.8061 -90.4853 159° South 182 209 2,400 -840 Descending Kansas City Center
02:30PM 38.7825 -90.4381 123° Southeast 160 184 1,700 -780 Descending Kansas City Center
02:31PM 38.7628 -90.3961 121° Southeast 147 169 900 -780 Descending Kansas City Center